createdAt,value
2022-08-22T00:00:43.789Z,99972.09
2022-08-22T00:03:03.717Z,99926.91
2022-08-22T00:03:06.868Z,99954.09
2022-08-22T00:03:11.474Z,99949.59
2022-08-22T00:03:11.845Z,99963.53
2022-08-22T00:03:39.924Z,99985.28
2022-08-22T00:06:14.468Z,99963.25
2022-08-22T00:09:05.814Z,99967.13
2022-08-22T00:11:56.183Z,99986.03
2022-08-22T00:14:46.603Z,99970.94
2022-08-22T00:17:27.169Z,99963.41
2022-08-22T00:20:08.177Z,99980.91
2022-08-22T00:22:56.672Z,99974.84
2022-08-22T00:25:48.162Z,99969.63
2022-08-22T00:28:49.958Z,99958.38
2022-08-22T00:31:31.735Z,99973.84
2022-08-22T00:34:08.197Z,99977.66
2022-08-22T00:36:47.687Z,99975.28
2022-08-22T00:39:36.949Z,99976.22
2022-08-22T00:42:29.538Z,100005.16
2022-08-22T00:44:59.115Z,99975.66
2022-08-22T00:47:54.197Z,100001.78
2022-08-22T00:50:26.792Z,99963.41
2022-08-22T00:53:08.985Z,99975.34
2022-08-22T00:55:53.632Z,100006.19
2022-08-22T00:58:50.750Z,99993.13
2022-08-22T01:01:26.481Z,99982.75
2022-08-22T01:04:13.894Z,99975.81
2022-08-22T01:07:09.941Z,99968.13
2022-08-22T01:09:45.850Z,99991.53
2022-08-22T01:12:28.121Z,100000.63
2022-08-22T01:14:59.715Z,99983.72
2022-08-22T01:18:01.843Z,100006.69
2022-08-22T01:20:52.632Z,99995.50
2022-08-22T01:23:43.771Z,99983.16
2022-08-22T01:26:32.401Z,99981.75
2022-08-22T01:29:28.319Z,99982.28
2022-08-22T01:32:14.033Z,99992.16
2022-08-22T01:34:47.160Z,99981.41
2022-08-22T01:37:43.471Z,99994.44
2022-08-22T01:40:54.201Z,99989.25
2022-08-22T01:43:58.646Z,99996.41
2022-08-22T01:46:34.316Z,99995.31
2022-08-22T01:49:25.460Z,100004.72
2022-08-22T01:52:11.078Z,99997.25
2022-08-22T01:55:01.759Z,99995.84
2022-08-22T01:57:28.888Z,100007.25
2022-08-22T02:00:00.519Z,100004.34
2022-08-22T02:02:45.963Z,100010.91
2022-08-22T02:05:24.323Z,100002.53
2022-08-22T02:08:32.716Z,99990.78
2022-08-22T02:11:09.793Z,100028.16
2022-08-22T02:13:49.583Z,100012.78
2022-08-22T02:16:41.834Z,100006.50
2022-08-22T02:19:26.629Z,100012.78
2022-08-22T02:22:29.636Z,100041.16
2022-08-22T02:25:13.613Z,100003.38
2022-08-22T02:27:52.334Z,100021.56
2022-08-22T02:30:41.429Z,100019.09
2022-08-22T02:33:15.650Z,100026.59
2022-08-22T02:35:55.007Z,100016.16
2022-08-22T02:38:48.124Z,100022.63
2022-08-22T02:41:36.530Z,100025.31
2022-08-22T02:44:31.492Z,100025.31
2022-08-22T02:47:26.235Z,100017.84
2022-08-22T02:50:04.731Z,100036.06
2022-08-22T02:52:51.314Z,100034.59
2022-08-22T02:55:42.391Z,100030.09
2022-08-22T02:58:09.205Z,100016.28
2022-08-22T03:01:02.495Z,100038.34
2022-08-22T03:03:36.180Z,100035.09
2022-08-22T03:06:07.651Z,100045.13
2022-08-22T03:09:20.492Z,100054.56
2022-08-22T03:12:04.509Z,100038.03
2022-08-22T03:14:41.322Z,100041.13
2022-08-22T03:17:17.034Z,100043.94
2022-08-22T03:19:59.514Z,100042.38
2022-08-22T03:22:44.255Z,100056.41
2022-08-22T03:25:34.999Z,100043.31
2022-08-22T03:28:18.188Z,100048.47
2022-08-22T03:31:11.300Z,100045.88
2022-08-22T03:34:01.100Z,100068.59
2022-08-22T03:36:29.724Z,100044.91
2022-08-22T03:39:07.279Z,100055.47
2022-08-22T03:41:47.550Z,100045.16
2022-08-22T03:44:36.589Z,100057.44
2022-08-22T03:47:09.418Z,100061.22
2022-08-22T03:49:42.432Z,100085.63
2022-08-22T03:52:18.184Z,100058.00
2022-08-22T03:55:08.133Z,100058.31
2022-08-22T03:58:27.330Z,100076.63
2022-08-22T04:01:34.093Z,100065.00
2022-08-22T04:04:22.697Z,100073.75
2022-08-22T04:06:56.363Z,100063.81
2022-08-22T04:09:54.782Z,100053.13
2022-08-22T04:12:49.771Z,100082.56
2022-08-22T04:15:54.084Z,100056.91
2022-08-22T04:18:47.953Z,100058.81
2022-08-22T04:21:42.120Z,100074.09
2022-08-22T04:24:30.582Z,100044.44
2022-08-22T04:27:29.763Z,100064.94
2022-08-22T04:30:06.385Z,100076.78
2022-08-22T04:32:40.703Z,100058.78
2022-08-22T04:35:28.447Z,100074.13
2022-08-22T04:38:12.462Z,100090.63
2022-08-22T04:40:47.417Z,100083.78
2022-08-22T04:43:23.293Z,100080.03
2022-08-22T04:46:03.156Z,100084.75
2022-08-22T04:48:39.005Z,100068.47
2022-08-22T04:51:33.499Z,100096.59
2022-08-22T04:54:12.658Z,100099.75
2022-08-22T04:56:51.739Z,100079.97
2022-08-22T04:59:19.705Z,100063.91
2022-08-22T05:01:52.605Z,100078.03
2022-08-22T05:04:24.042Z,100065.59
2022-08-22T05:07:19.264Z,100068.06
2022-08-22T05:10:21.509Z,100091.56
2022-08-22T05:12:55.939Z,100078.72
2022-08-22T05:15:33.154Z,100095.31
2022-08-22T05:18:14.057Z,100079.09
2022-08-22T05:20:47.133Z,100086.09
2022-08-22T05:23:25.181Z,100090.81
2022-08-22T05:25:57.389Z,100080.34
2022-08-22T05:28:35.429Z,100097.28
2022-08-22T05:31:09.896Z,100090.16
2022-08-22T05:34:04.039Z,100106.06
2022-08-22T05:37:08.281Z,100083.38
2022-08-22T05:39:38.477Z,100102.53
2022-08-22T05:42:12.112Z,100086.41
2022-08-22T05:44:39.592Z,100097.84
2022-08-22T05:47:23.837Z,100082.66
2022-08-22T05:50:13.163Z,100093.91
2022-08-22T05:52:57.275Z,100093.97
2022-08-22T05:55:51.907Z,100089.78
2022-08-22T05:58:39.712Z,100101.16
2022-08-22T06:01:18.705Z,100111.75
2022-08-22T06:04:01.516Z,100102.00
2022-08-22T06:06:32.435Z,100088.91
2022-08-22T06:09:23.909Z,100074.41
2022-08-22T06:11:58.577Z,100121.38
2022-08-22T06:14:32.925Z,100105.63
2022-08-22T06:17:11.763Z,100109.50
2022-08-22T06:19:44.104Z,100113.59
2022-08-22T06:22:27.208Z,100103.31
2022-08-22T06:24:57.514Z,100107.19
2022-08-22T06:27:31.291Z,100109.94
2022-08-22T06:30:03.230Z,100107.22
2022-08-22T06:32:59.865Z,100106.31
2022-08-22T06:35:43.198Z,100102.56
2022-08-22T06:38:10.592Z,100098.25
2022-08-22T06:40:41.531Z,100097.31
2022-08-22T06:43:10.812Z,100110.63
2022-08-22T06:45:39.585Z,100086.38
2022-08-22T06:48:09.318Z,100098.75
2022-08-22T06:50:40.678Z,100086.81
2022-08-22T06:53:45.950Z,100122.88
2022-08-22T06:56:25.484Z,100113.38
2022-08-22T06:59:02.709Z,100078.94
2022-08-22T07:01:48.570Z,100108.50
2022-08-22T07:04:16.218Z,100104.91
2022-08-22T07:06:46.139Z,100089.84
2022-08-22T07:09:35.549Z,100084.94
2022-08-22T07:12:11.046Z,100074.72
2022-08-22T07:14:49.327Z,100078.38
2022-08-22T07:17:25.808Z,100089.47
2022-08-22T07:20:02.001Z,100082.34
2022-08-22T07:22:32.853Z,100086.75
2022-08-22T07:25:05.806Z,100098.09
2022-08-22T07:28:03.817Z,100087.78
2022-08-22T07:30:54.057Z,100073.69
2022-08-22T07:33:44.074Z,100080.44
2022-08-22T07:36:31.990Z,100070.31
2022-08-22T07:39:27.025Z,100088.06
2022-08-22T07:42:30.373Z,100104.13
2022-08-22T07:45:26.726Z,100076.56
2022-08-22T07:48:11.537Z,100083.91
2022-08-22T07:50:53.926Z,100067.44
2022-08-22T07:53:45.455Z,100091.69
2022-08-22T07:56:17.793Z,100092.88
2022-08-22T07:58:47.873Z,100093.22
2022-08-22T08:01:21.806Z,100073.41
2022-08-22T08:03:55.737Z,100095.63
2022-08-22T08:06:24.919Z,100076.31
2022-08-22T08:08:53.053Z,100068.81
2022-08-22T08:11:25.005Z,100070.47
2022-08-22T08:14:00.925Z,100079.38
2022-08-22T08:16:33.443Z,100077.88
2022-08-22T08:19:02.685Z,100062.53
2022-08-22T08:21:51.058Z,100059.75
2022-08-22T08:24:24.144Z,100074.75
2022-08-22T08:26:59.185Z,100066.59
2022-08-22T08:29:26.283Z,100037.19
2022-08-22T08:31:53.287Z,100044.03
2022-08-22T08:34:26.034Z,100056.06
2022-08-22T08:37:16.691Z,100054.34
2022-08-22T08:39:48.604Z,100052.72
2022-08-22T08:42:26.930Z,100047.06
2022-08-22T08:45:18.738Z,100066.66
2022-08-22T08:48:01.303Z,100053.16
2022-08-22T08:50:53.353Z,100044.72
2022-08-22T08:53:48.532Z,100068.28
2022-08-22T08:56:25.506Z,100059.50
2022-08-22T08:59:10.120Z,100071.81
2022-08-22T09:01:49.245Z,100054.88
2022-08-22T09:04:50.293Z,100047.22
2022-08-22T09:07:58.945Z,100053.03
2022-08-22T09:10:36.590Z,100048.16
2022-08-22T09:13:11.489Z,100060.09
2022-08-22T09:16:27.364Z,100040.06
2022-08-22T09:19:28.329Z,100075.34
2022-08-22T09:22:50.220Z,100062.31
2022-08-22T09:25:33.704Z,100040.66
2022-08-22T09:28:28.354Z,100049.31
2022-08-22T09:31:33.067Z,100031.38
2022-08-22T09:37:45.766Z,100027.25
2022-08-22T09:43:05.796Z,100046.16
2022-08-22T09:46:20.153Z,100037.41
2022-08-22T09:49:30.264Z,100043.97
2022-08-22T09:52:15.239Z,100040.44
2022-08-22T09:55:08.528Z,100040.56
2022-08-22T09:57:56.513Z,100034.84
2022-08-22T10:00:33.220Z,100032.34
2022-08-22T10:03:12.364Z,100025.78
2022-08-22T10:05:59.359Z,100031.59
2022-08-22T10:08:46.002Z,100037.53
2022-08-22T10:11:32.284Z,100027.63
2022-08-22T10:14:04.950Z,100022.56
2022-08-22T10:16:43.301Z,100026.06
2022-08-22T10:19:47.782Z,100025.47
2022-08-22T10:22:29.792Z,100036.72
2022-08-22T10:25:06.303Z,100019.06
2022-08-22T10:27:45.661Z,100030.06
2022-08-22T10:30:38.785Z,100029.19
2022-08-22T10:33:32.294Z,100036.66
2022-08-22T10:36:12.013Z,100047.25
2022-08-22T10:38:51.049Z,99965.13
2022-08-22T10:41:26.918Z,100024.91
2022-08-22T10:44:17.231Z,100012.66
2022-08-22T10:46:50.519Z,100021.44
2022-08-22T10:49:32.097Z,100025.19
2022-08-22T10:52:15.703Z,99987.41
2022-08-22T10:54:48.129Z,100019.47
2022-08-22T10:57:35.300Z,100010.53
2022-08-22T11:00:34.101Z,100001.03
2022-08-22T11:03:18.713Z,100007.22
2022-08-22T11:05:51.322Z,100011.91
2022-08-22T11:08:35.441Z,99994.50
2022-08-22T11:11:11.420Z,99998.25
2022-08-22T11:13:54.599Z,99985.28
2022-08-22T11:16:59.161Z,99992.47
2022-08-22T11:20:04.554Z,99998.53
2022-08-22T11:22:55.878Z,99988.59
2022-08-22T11:25:53.674Z,99987.06
2022-08-22T11:28:35.511Z,100004.75
2022-08-22T11:31:40.059Z,99994.56
2022-08-22T11:34:21.302Z,99962.28
2022-08-22T11:37:31.679Z,99981.59
2022-08-22T11:40:13.484Z,99986.38
2022-08-22T11:43:03.134Z,99963.88
2022-08-22T11:45:40.501Z,99975.81
2022-08-22T11:48:22.261Z,99949.31
2022-08-22T11:51:00.402Z,99963.28
2022-08-22T11:53:45.089Z,99963.75
2022-08-22T11:56:12.794Z,99964.41
2022-08-22T11:58:42.488Z,99956.41
2022-08-22T12:01:18.642Z,99965.94
2022-08-22T12:04:23.943Z,99959.03
2022-08-22T12:07:04.856Z,99969.25
2022-08-22T12:09:38.078Z,99964.75
2022-08-22T12:12:05.016Z,99963.84
2022-08-22T12:14:54.713Z,99956.41
2022-08-22T12:17:55.714Z,99960.19
2022-08-22T12:20:45.544Z,99970.38
2022-08-22T12:23:48.799Z,99960.97
2022-08-22T12:26:28.654Z,99931.50
2022-08-22T12:28:58.470Z,99948.31
2022-08-22T12:31:56.603Z,99967.22
2022-08-22T12:34:57.248Z,99966.41
2022-08-22T12:37:52.805Z,99949.59
2022-08-22T12:40:48.755Z,99959.81
2022-08-22T12:43:42.540Z,99948.69
2022-08-22T12:46:14.937Z,99969.97
2022-08-22T12:49:07.999Z,99930.19
2022-08-22T12:51:38.099Z,99952.31
2022-08-22T12:54:44.002Z,99937.22
2022-08-22T12:57:33.306Z,99947.34
2022-08-22T13:00:26.886Z,99955.66
2022-08-22T13:03:02.148Z,99940.34
2022-08-22T13:05:40.638Z,99941.31
2022-08-22T13:08:15.869Z,99948.63
2022-08-22T13:11:00.874Z,99937.22
2022-08-22T13:13:36.942Z,99939.56
2022-08-22T13:16:13.133Z,99940.63
2022-08-22T13:18:53.471Z,99931.25
2022-08-22T13:21:31.667Z,99946.06
2022-08-22T13:24:16.878Z,99930.84
2022-08-22T13:27:00.316Z,99924.56
2022-08-22T13:29:42.701Z,99939.13
2022-08-22T13:32:31.557Z,99949.09
2022-08-22T13:35:00.735Z,99937.09
2022-08-22T13:37:50.195Z,99938.66
2022-08-22T13:40:32.580Z,99948.69
2022-08-22T13:43:10.441Z,99933.97
2022-08-22T13:45:40.703Z,99935.88
2022-08-22T13:48:15.428Z,99926.13
2022-08-22T13:51:04.040Z,99932.50
2022-08-22T13:53:38.377Z,99949.06
2022-08-22T13:56:29.793Z,99957.16
2022-08-22T13:59:00.340Z,99930.66
2022-08-22T14:01:35.945Z,99930.06
2022-08-22T14:04:36.221Z,99924.47
2022-08-22T14:07:03.690Z,99925.50
2022-08-22T14:09:54.233Z,99935.38
2022-08-22T14:12:28.698Z,99931.56
2022-08-22T14:15:08.216Z,99926.09
2022-08-22T14:17:43.478Z,99930.16
2022-08-22T14:20:32.642Z,99912.88
2022-08-22T14:23:09.137Z,99934.50
2022-08-22T14:25:42.606Z,99921.28
2022-08-22T14:28:28.592Z,99939.06
2022-08-22T14:31:13.875Z,99939.44
2022-08-22T14:33:59.729Z,99914.94
2022-08-22T14:36:46.921Z,99923.38
2022-08-22T14:39:29.412Z,99932.81
2022-08-22T14:42:05.571Z,99921.78
2022-08-22T14:44:40.691Z,99917.22
2022-08-22T14:47:54.157Z,99948.88
2022-08-22T14:50:29.436Z,99855.00
2022-08-22T14:53:26.366Z,99917.50
2022-08-22T14:56:24.993Z,99919.66
2022-08-22T14:59:02.305Z,99923.69
2022-08-22T15:01:57.375Z,99917.47
2022-08-22T15:04:47.136Z,99942.19
2022-08-22T15:07:26.914Z,99913.81
2022-08-22T15:10:11.842Z,99942.91
2022-08-22T15:13:05.875Z,99921.94
2022-08-22T15:15:53.506Z,99923.47
2022-08-22T15:18:28.109Z,99929.56
2022-08-22T15:21:11.354Z,99933.19
2022-08-22T15:23:46.809Z,99929.22
2022-08-22T15:26:25.878Z,99939.91
2022-08-22T15:29:16.718Z,99975.78
2022-08-22T15:31:46.774Z,99915.06
2022-08-22T15:34:46.294Z,99936.06
2022-08-22T15:37:16.197Z,99920.66
2022-08-22T15:40:07.472Z,99939.22
2022-08-22T15:42:44.080Z,99960.28
2022-08-22T15:45:38.587Z,99963.75
2022-08-22T15:48:24.140Z,99967.72
2022-08-22T15:51:09.452Z,99946.56
2022-08-22T15:53:45.376Z,99944.09
2022-08-22T15:56:12.264Z,99941.41
2022-08-22T15:58:48.744Z,99949.81
2022-08-22T16:01:20.834Z,99957.00
2022-08-22T16:04:02.871Z,99950.34
2022-08-22T16:06:47.603Z,99965.63
2022-08-22T16:09:44.718Z,99960.47
2022-08-22T16:12:28.703Z,99961.97
2022-08-22T16:14:55.894Z,99958.00
2022-08-22T16:17:28.721Z,99957.00
2022-08-22T16:20:15.864Z,99968.34
2022-08-22T16:23:00.449Z,99969.56
2022-08-22T16:25:45.476Z,99977.41
2022-08-22T16:28:54.408Z,99991.13
2022-08-22T16:31:46.017Z,99975.16
2022-08-22T16:34:43.620Z,99977.53
2022-08-22T16:37:13.317Z,99988.78
2022-08-22T16:39:58.606Z,99990.75
2022-08-22T16:42:38.108Z,100003.00
2022-08-22T16:45:29.677Z,99990.44
2022-08-22T16:47:58.580Z,99995.97
2022-08-22T16:50:32.229Z,100025.91
2022-08-22T16:53:30.326Z,99993.13
2022-08-22T16:56:20.852Z,100000.97
2022-08-22T16:59:22.812Z,100004.63
2022-08-22T17:07:32.669Z,100032.16
2022-08-22T17:19:23.167Z,100019.09
2022-08-22T17:22:43.242Z,100034.97
2022-08-22T17:25:32.119Z,100032.00
2022-08-22T17:32:19.161Z,100002.59
2022-08-22T17:35:13.543Z,100036.41
2022-08-22T17:41:19.166Z,100014.25
2022-08-22T17:44:10.634Z,100024.22
2022-08-22T17:47:08.059Z,100037.72
2022-08-22T17:50:42.459Z,100027.38
2022-08-22T17:53:05.645Z,100025.28
2022-08-22T17:59:20.977Z,100044.25
2022-08-22T18:02:18.863Z,100018.38
2022-08-22T18:11:52.555Z,100029.50
2022-08-22T18:15:06.007Z,100036.06
2022-08-22T18:17:50.225Z,100030.34
2022-08-22T18:20:57.708Z,100041.19
2022-08-22T18:23:40.603Z,100034.44
2022-08-22T18:26:18.543Z,100071.41
2022-08-22T18:29:16.595Z,100054.88
2022-08-22T18:32:12.990Z,100027.00
2022-08-22T18:34:51.804Z,100035.25
2022-08-22T18:37:30.598Z,100074.06
2022-08-22T18:40:11.793Z,100043.16
2022-08-22T18:42:59.449Z,100067.97
2022-08-22T18:45:48.210Z,100060.44
2022-08-22T18:48:27.633Z,100050.69
2022-08-22T18:51:19.327Z,100053.28
2022-08-22T18:53:59.210Z,100062.50
2022-08-22T18:56:31.737Z,100061.25
2022-08-22T18:59:07.656Z,100064.75
2022-08-22T19:02:01.040Z,100028.44
2022-08-22T19:04:49.398Z,100065.19
2022-08-22T19:07:27.135Z,100084.34
2022-08-22T19:10:25.414Z,100054.97
2022-08-22T19:13:17.536Z,100065.94
2022-08-22T19:16:21.695Z,100058.97
2022-08-22T19:18:58.303Z,100071.00
2022-08-22T19:21:29.580Z,100068.78
2022-08-22T19:23:56.681Z,100056.94
2022-08-22T19:26:35.314Z,100052.63
2022-08-22T19:29:25.441Z,100079.97
2022-08-22T19:31:58.929Z,100082.00
2022-08-22T19:34:26.014Z,100085.84
2022-08-22T19:37:30.740Z,100072.91
2022-08-22T19:40:01.964Z,100078.63
2022-08-22T19:42:32.317Z,100079.00
2022-08-22T19:45:04.718Z,100105.56
2022-08-22T19:47:39.780Z,100089.72
2022-08-22T19:50:15.680Z,100076.78
2022-08-22T19:52:45.270Z,100092.13
2022-08-22T19:55:27.241Z,100086.31
2022-08-22T19:58:15.310Z,100077.50
2022-08-22T20:00:58.005Z,100086.38
2022-08-22T20:03:59.183Z,100095.75
2022-08-22T20:06:55.047Z,100091.88
2022-08-22T20:09:43.313Z,100111.13
2022-08-22T20:12:19.166Z,100098.13
2022-08-22T20:14:50.553Z,100091.00
2022-08-22T20:17:24.065Z,100096.03
2022-08-22T20:22:55.426Z,100094.59
2022-08-22T20:25:43.006Z,100103.38
2022-08-22T20:28:24.898Z,100087.84
2022-08-22T20:30:58.796Z,100123.91
2022-08-22T20:33:31.368Z,100095.84
2022-08-22T20:36:06.569Z,100104.88
2022-08-22T20:38:55.804Z,100116.84
2022-08-22T20:41:52.283Z,100123.56
2022-08-22T20:44:25.127Z,100115.78
2022-08-22T20:47:05.326Z,100115.25
2022-08-22T20:49:41.873Z,100116.53
2022-08-22T20:52:30.911Z,100118.91
2022-08-22T20:55:21.395Z,100116.41
2022-08-22T20:57:53.051Z,100124.63
2022-08-22T21:00:28.060Z,100126.13
2022-08-22T21:02:57.804Z,100124.19
2022-08-22T21:05:33.253Z,100114.75
2022-08-22T21:08:20.875Z,100138.50
2022-08-22T21:10:57.945Z,100133.28
2022-08-22T21:13:36.291Z,100113.50
2022-08-22T21:16:16.862Z,100145.38
2022-08-22T21:18:49.618Z,100147.50
2022-08-22T21:21:22.324Z,100138.25
2022-08-22T21:24:10.286Z,100138.53
2022-08-22T21:26:46.009Z,100129.09
2022-08-22T21:29:19.892Z,100129.34
2022-08-22T21:31:54.172Z,100143.25
2022-08-22T21:34:35.241Z,100146.38
2022-08-22T21:37:35.158Z,100131.28
2022-08-22T21:40:16.741Z,100158.59
2022-08-22T21:42:58.347Z,100151.47
2022-08-22T21:45:51.585Z,100158.94
2022-08-22T21:48:30.388Z,100163.44
2022-08-22T21:51:40.307Z,100159.22
2022-08-22T21:54:25.550Z,100157.47
2022-08-22T21:56:58.694Z,100147.19
2022-08-22T21:59:51.625Z,100150.47
2022-08-22T22:02:36.798Z,100166.16
2022-08-22T22:05:11.326Z,100084.06
2022-08-22T22:07:41.156Z,100144.34
2022-08-22T22:10:12.065Z,100148.69
2022-08-22T22:12:43.803Z,100132.84
2022-08-22T22:15:16.264Z,100147.31
2022-08-22T22:17:43.191Z,100146.44
2022-08-22T22:20:11.874Z,100186.13
2022-08-22T22:22:43.177Z,100172.69
2022-08-22T22:25:39.651Z,100161.50
2022-08-22T22:28:07.142Z,100163.16
2022-08-22T22:30:34.231Z,100157.78
2022-08-22T22:33:01.045Z,100169.28
2022-08-22T22:35:28.048Z,100168.81
2022-08-22T22:38:03.746Z,100178.81
2022-08-22T22:40:30.883Z,100166.72
2022-08-22T22:42:57.943Z,100219.66
2022-08-22T22:45:25.221Z,100173.31
2022-08-22T22:47:52.034Z,100170.00
2022-08-22T22:50:18.923Z,100157.19
2022-08-22T22:52:45.795Z,100167.59
2022-08-22T22:55:12.692Z,100173.91
2022-08-22T22:57:58.633Z,100172.09
2022-08-22T23:00:29.176Z,100157.03
2022-08-22T23:03:02.343Z,100162.25
2022-08-22T23:05:30.682Z,100179.28
2022-08-22T23:08:00.507Z,100159.72
2022-08-22T23:10:29.206Z,100165.53
2022-08-22T23:12:56.188Z,100174.03
2022-08-22T23:15:23.310Z,100166.28
2022-08-22T23:17:51.301Z,100180.75
2022-08-22T23:20:18.231Z,100172.84
2022-08-22T23:22:46.113Z,100164.91
2022-08-22T23:25:13.507Z,100179.28
2022-08-22T23:27:42.607Z,100195.38
2022-08-22T23:30:10.835Z,100181.97
2022-08-22T23:32:47.959Z,100184.03
2022-08-22T23:35:15.031Z,100167.00
2022-08-22T23:37:44.185Z,100200.16
2022-08-22T23:40:11.622Z,100200.16
2022-08-22T23:42:40.549Z,100184.28
2022-08-22T23:45:07.639Z,100188.81
2022-08-22T23:47:37.612Z,100185.22
2022-08-22T23:50:06.215Z,100203.41
2022-08-22T23:52:35.779Z,100190.88
2022-08-22T23:55:03.509Z,100190.44
2022-08-22T23:57:30.364Z,100184.91
2022-08-22T23:59:58.476Z,100198.47
